^^
Your Local Weather - Clay, NY Station Historical Data
Daily Summary for July 16, 2017 Units:  English    Metric   Both
« Previous Day
Next Day »
Daily Weekly Monthly Yearly Custom
  High: Low: Average:
Temperature: 81.6 °F 62.4 °F 71 °F
Dew Point: 65.8 °F 55.9 °F 60.9 °F
Humidity: 93% 43% 73%
Wind Speed: 3.0mph 0.0mph 0.5mph
Wind Gust: 4.0mph - -
Wind- - SW
Pressure: 29.93 in 29.88 in -
Precipitation: 0.00 in    
Historical Graphs
 
 
Tabular Data for July 16, 2017
Time Temperature Dew Point Pressure Wind Wind Speed Wind Gust Humidity Rainfall Rate (Hourly) solar
00:04 63.4 °F 61.3 °F 29.90 in Calm     93% 0.00 in 0 W/m2
00:09 63.4 °F 61.3 °F 29.90 in Calm     93% 0.00 in 0 W/m2
00:15 63.2 °F 60.8 °F 29.90 in Calm     92% 0.00 in 0 W/m2
00:22 63.0 °F 60.6 °F 29.90 in Calm     92% 0.00 in 0 W/m2
00:28 62.9 °F 60.8 °F 29.90 in Calm     93% 0.00 in 0 W/m2
00:34 62.9 °F 60.8 °F 29.90 in Calm   1.0 mph 93% 0.00 in 0 W/m2
00:40 62.9 °F 60.8 °F 29.90 in Calm     93% 0.00 in 0 W/m2
00:45 63.1 °F 61.0 °F 29.90 in Calm     93% 0.00 in 0 W/m2
00:52 63.2 °F 61.1 °F 29.89 in Calm     93% 0.00 in 0 W/m2
00:58 63.0 °F 60.6 °F 29.89 in Calm     92% 0.00 in 0 W/m2
01:04 63.0 °F 60.9 °F 29.90 in Calm     93% 0.00 in 0 W/m2
01:10 62.9 °F 60.8 °F 29.89 in Calm     93% 0.00 in 0 W/m2
01:16 62.7 °F 60.6 °F 29.90 in Calm     93% 0.00 in 0 W/m2
01:22 62.6 °F 60.2 °F 29.90 in Calm     92% 0.00 in 0 W/m2
01:28 62.4 °F 60.0 °F 29.89 in Calm     92% 0.00 in 0 W/m2
01:34 62.5 °F 60.1 °F 29.90 in Calm     92% 0.00 in 0 W/m2
01:40 62.6 °F 60.5 °F 29.89 in Calm     93% 0.00 in 0 W/m2
01:46 62.6 °F 60.5 °F 29.89 in Calm     93% 0.00 in 0 W/m2
01:52 62.6 °F 60.5 °F 29.89 in Calm     93% 0.00 in 0 W/m2
01:58 62.5 °F 60.4 °F 29.89 in Calm     93% 0.00 in 0 W/m2
02:04 62.5 °F 60.4 °F 29.89 in Calm     93% 0.00 in 0 W/m2
02:10 62.8 °F 60.7 °F 29.89 in Calm     93% 0.00 in 0 W/m2
02:16 63.0 °F 60.9 °F 29.90 in Calm     93% 0.00 in 0 W/m2
02:22 63.2 °F 61.1 °F 29.90 in Calm     93% 0.00 in 0 W/m2
02:28 63.3 °F 60.9 °F 29.90 in Calm     92% 0.00 in 0 W/m2
02:34 63.3 °F 60.9 °F 29.89 in Calm   1.0 mph 92% 0.00 in 0 W/m2
02:40 63.4 °F 61.0 °F 29.89 in Calm     92% 0.00 in 0 W/m2
02:46 63.3 °F 60.9 °F 29.89 in Calm     92% 0.00 in 0 W/m2
02:52 63.2 °F 60.8 °F 29.89 in Calm     92% 0.00 in 0 W/m2
02:58 63.1 °F 60.4 °F 29.89 in Calm     91% 0.00 in 0 W/m2
03:04 63.1 °F 60.4 °F 29.90 in Calm     91% 0.00 in 0 W/m2
03:10 63.2 °F 60.8 °F 29.90 in Calm     92% 0.00 in 0 W/m2
03:16 63.5 °F 60.8 °F 29.90 in Calm   1.0 mph 91% 0.00 in 0 W/m2
03:22 63.6 °F 60.9 °F 29.90 in Calm   2.0 mph 91% 0.00 in 0 W/m2
03:28 63.7 °F 61.0 °F 29.90 in Calm   2.0 mph 91% 0.00 in 0 W/m2
03:34 63.8 °F 60.8 °F 29.90 in SSW 1.0 mph 1.0 mph 90% 0.00 in 0 W/m2
03:40 63.8 °F 60.8 °F 29.90 in Calm     90% 0.00 in 0 W/m2
03:46 63.9 °F 60.9 °F 29.90 in Calm     90% 0.00 in 0 W/m2
03:52 63.8 °F 60.5 °F 29.90 in Calm     89% 0.00 in 0 W/m2
03:58 63.9 °F 60.6 °F 29.90 in Calm   2.0 mph 89% 0.00 in 0 W/m2
04:04 63.9 °F 60.6 °F 29.90 in Calm     89% 0.00 in 0 W/m2
04:10 64.0 °F 60.7 °F 29.90 in Calm     89% 0.00 in 0 W/m2
04:16 64.0 °F 60.7 °F 29.90 in Calm   1.0 mph 89% 0.00 in 0 W/m2
04:22 64.0 °F 60.7 °F 29.90 in SSW 1.0 mph 1.0 mph 89% 0.00 in 0 W/m2
04:28 64.0 °F 60.7 °F 29.90 in SSW 1.0 mph 2.0 mph 89% 0.00 in 0 W/m2
04:34 64.2 °F 60.9 °F 29.91 in SSW 1.0 mph 3.0 mph 89% 0.00 in 0 W/m2
04:40 64.3 °F 61.0 °F 29.90 in SSW 1.0 mph 1.0 mph 89% 0.00 in 0 W/m2
04:46 64.4 °F 60.8 °F 29.91 in SSW 1.0 mph 2.0 mph 88% 0.00 in 0 W/m2
04:48 64.4 °F 60.8 °F 29.91 in SSW 1.0 mph 2.0 mph 88% 0.00 in 0 W/m2
04:54 64.3 °F 60.7 °F 29.91 in Calm   1.0 mph 88% 0.00 in 0 W/m2
05:00 64.2 °F 60.6 °F 29.91 in Calm     88% 0.00 in 0 W/m2
05:06 64.1 °F 60.5 °F 29.91 in Calm     88% 0.00 in 0 W/m2
05:12 63.9 °F 60.3 °F 29.91 in Calm     88% 0.00 in 0 W/m2
05:18 63.7 °F 60.4 °F 29.91 in Calm   1.0 mph 89% 0.00 in 0 W/m2
05:24 63.6 °F 60.3 °F 29.91 in Calm   1.0 mph 89% 0.00 in 0 W/m2
05:30 63.5 °F 60.2 °F 29.91 in SSW 1.0 mph 1.0 mph 89% 0.00 in 0 W/m2
05:36 63.4 °F 60.1 °F 29.91 in SSW 1.0 mph 2.0 mph 89% 0.00 in 0 W/m2
05:42 63.3 °F 60.0 °F 29.91 in SSW 1.0 mph 1.0 mph 89% 0.00 in 0 W/m2
05:48 63.2 °F 60.2 °F 29.91 in Calm   1.0 mph 90% 0.00 in 5 W/m2
05:54 63.1 °F 60.1 °F 29.91 in Calm     90% 0.00 in 7 W/m2
06:00 63.1 °F 60.1 °F 29.92 in Calm     90% 0.00 in 9 W/m2
06:06 62.9 °F 59.9 °F 29.92 in Calm   1.0 mph 90% 0.00 in 11 W/m2
06:12 62.9 °F 59.9 °F 29.92 in SSW 1.0 mph 3.0 mph 90% 0.00 in 12 W/m2
06:18 62.9 °F 59.9 °F 29.92 in SSW 1.0 mph 3.0 mph 90% 0.00 in 19 W/m2
06:24 62.9 °F 59.9 °F 29.93 in SSW 1.0 mph 1.0 mph 90% 0.00 in 32 W/m2
06:30 63.0 °F 60.3 °F 29.92 in SW 1.0 mph 2.0 mph 91% 0.00 in 40 W/m2
06:36 63.1 °F 60.4 °F 29.92 in SW 2.0 mph 2.0 mph 91% 0.00 in 79 W/m2
06:42 63.6 °F 60.6 °F 29.92 in WSW 2.0 mph 2.0 mph 90% 0.00 in 142 W/m2
06:48 64.2 °F 61.2 °F 29.93 in WSW 2.0 mph 2.0 mph 90% 0.00 in 148 W/m2
06:54 64.6 °F 61.3 °F 29.93 in WSW 1.0 mph 3.0 mph 89% 0.00 in 95 W/m2
07:00 64.7 °F 61.1 °F 29.93 in WSW 1.0 mph 2.0 mph 88% 0.00 in 40 W/m2
07:06 64.7 °F 61.1 °F 29.93 in WSW 2.0 mph 2.0 mph 88% 0.00 in 33 W/m2
07:12 64.5 °F 60.9 °F 29.93 in Calm   1.0 mph 88% 0.00 in 35 W/m2
07:18 64.4 °F 60.8 °F 29.93 in Calm   3.0 mph 88% 0.00 in 65 W/m2
07:24 64.5 °F 60.9 °F 29.93 in WSW 1.0 mph 2.0 mph 88% 0.00 in 234 W/m2
07:30 65.1 °F 61.5 °F 29.93 in WSW 1.0 mph 1.0 mph 88% 0.00 in 246 W/m2
07:36 66.0 °F 62.0 °F 29.93 in Calm   1.0 mph 87% 0.00 in 267 W/m2
07:42 66.6 °F 61.9 °F 29.93 in SW 1.0 mph 3.0 mph 85% 0.00 in 288 W/m2
07:48 66.7 °F 61.7 °F 29.93 in West 1.0 mph 3.0 mph 84% 0.00 in 311 W/m2
07:54 67.0 °F 61.7 °F 29.93 in SSW 1.0 mph 4.0 mph 83% 0.00 in 330 W/m2
08:00 67.6 °F 62.6 °F 29.93 in WSW 1.0 mph 4.0 mph 84% 0.00 in 341 W/m2
08:06 67.7 °F 61.3 °F 29.93 in SW 2.0 mph 4.0 mph 80% 0.00 in 357 W/m2
08:12 68.1 °F 62.0 °F 29.93 in SW 2.0 mph 4.0 mph 81% 0.00 in 381 W/m2
08:18 68.2 °F 62.1 °F 29.93 in WSW 2.0 mph 4.0 mph 81% 0.00 in 397 W/m2
08:24 68.7 °F 62.3 °F 29.93 in WSW 1.0 mph 2.0 mph 80% 0.00 in 410 W/m2
08:30 69.5 °F 62.7 °F 29.93 in Calm     79% 0.00 in 418 W/m2
08:36 69.6 °F 61.7 °F 29.93 in WSW 1.0 mph 3.0 mph 76% 0.00 in 408 W/m2
08:42 69.6 °F 62.1 °F 29.93 in WSW 1.0 mph 1.0 mph 77% 0.00 in 454 W/m2
08:48 70.0 °F 61.7 °F 29.93 in Calm   2.0 mph 75% 0.00 in 475 W/m2
08:54 70.5 °F 61.8 °F 29.93 in Calm   3.0 mph 74% 0.00 in 489 W/m2
09:00 70.6 °F 61.1 °F 29.93 in WSW 1.0 mph 1.0 mph 72% 0.00 in 506 W/m2
09:06 71.2 °F 61.7 °F 29.93 in West 1.0 mph 1.0 mph 72% 0.00 in 524 W/m2
09:12 71.7 °F 60.6 °F 29.93 in Calm   1.0 mph 68% 0.00 in 543 W/m2
09:18 72.3 °F 61.1 °F 29.93 in West 1.0 mph 1.0 mph 68% 0.00 in 561 W/m2
09:24 72.5 °F 61.7 °F 29.93 in Calm   4.0 mph 69% 0.00 in 568 W/m2
09:30 72.3 °F 60.3 °F 29.93 in WSW 1.0 mph 1.0 mph 66% 0.00 in 610 W/m2
09:36 72.8 °F 62.8 °F 29.93 in Calm   1.0 mph 71% 0.00 in 571 W/m2
09:42 72.9 °F 60.4 °F 29.93 in Calm   4.0 mph 65% 0.00 in 638 W/m2
09:48 73.2 °F 60.7 °F 29.93 in WSW 1.0 mph 4.0 mph 65% 0.00 in 652 W/m2
09:54 73.5 °F 61.0 °F 29.93 in Calm   1.0 mph 65% 0.00 in 666 W/m2
10:00 74.0 °F 58.3 °F 29.93 in Calm     58% 0.00 in 687 W/m2
10:06 74.4 °F 61.4 °F 29.93 in Calm   1.0 mph 64% 0.00 in 708 W/m2
10:12 74.5 °F 58.8 °F 29.93 in SW 1.0 mph 3.0 mph 58% 0.00 in 744 W/m2
10:18 74.2 °F 58.5 °F 29.92 in WSW 1.0 mph 4.0 mph 58% 0.00 in 837 W/m2
10:24 74.2 °F 59.9 °F 29.92 in SSE 1.0 mph 1.0 mph 61% 0.00 in 867 W/m2
10:30 74.0 °F 59.7 °F 29.92 in South 1.0 mph 1.0 mph 61% 0.00 in 288 W/m2
10:36 73.7 °F 57.5 °F 29.92 in WSW 1.0 mph 1.0 mph 57% 0.00 in 288 W/m2
10:42 74.8 °F 59.5 °F 29.92 in Calm   1.0 mph 59% 0.00 in 888 W/m2
10:48 75.1 °F 61.2 °F 29.92 in Calm   1.0 mph 62% 0.00 in 870 W/m2
10:54 76.6 °F 62.1 °F 29.92 in Calm     61% 0.00 in 1005 W/m2
11:00 76.8 °F 58.4 °F 29.92 in WNW 1.0 mph 1.0 mph 53% 0.00 in 1002 W/m2
11:06 75.7 °F 57.4 °F 29.92 in NNW 1.0 mph 2.0 mph 53% 0.00 in 381 W/m2
11:12 75.8 °F 59.5 °F 29.92 in NNW 1.0 mph 2.0 mph 57% 0.00 in 406 W/m2
11:18 75.9 °F 60.1 °F 29.92 in SW 1.0 mph 2.0 mph 58% 0.00 in 573 W/m2
11:24 76.3 °F 58.4 °F 29.93 in NW 1.0 mph 1.0 mph 54% 0.00 in 399 W/m2
11:30 75.7 °F 57.9 °F 29.93 in WNW 1.0 mph 1.0 mph 54% 0.00 in 392 W/m2
11:36 75.4 °F 57.6 °F 29.93 in SW 1.0 mph 2.0 mph 54% 0.00 in 336 W/m2
11:42 75.0 °F 59.7 °F 29.93 in SW 1.0 mph 1.0 mph 59% 0.00 in 461 W/m2
11:48 75.1 °F 57.3 °F 29.93 in SSW 1.0 mph 1.0 mph 54% 0.00 in 309 W/m2
11:54 75.0 °F 57.2 °F 29.93 in WSW 1.0 mph 3.0 mph 54% 0.00 in 357 W/m2
12:00 75.6 °F 59.3 °F 29.93 in WSW 1.0 mph 1.0 mph 57% 0.00 in 420 W/m2
12:06 75.8 °F 57.4 °F 29.92 in WSW 1.0 mph 3.0 mph 53% 0.00 in 288 W/m2
12:12 76.6 °F 61.7 °F 29.92 in WSW 1.0 mph 3.0 mph 60% 0.00 in 353 W/m2
12:18 76.9 °F 56.3 °F 29.92 in WSW 1.0 mph 3.0 mph 49% 0.00 in 408 W/m2
12:24 77.5 °F 60.6 °F 29.92 in Calm   2.0 mph 56% 0.00 in 879 W/m2
12:30 76.9 °F 59.0 °F 29.92 in Calm   2.0 mph 54% 0.00 in 288 W/m2
12:36 76.0 °F 58.2 °F 29.92 in WSW 1.0 mph 3.0 mph 54% 0.00 in 292 W/m2
12:42 77.0 °F 61.6 °F 29.92 in WSW 1.0 mph 4.0 mph 59% 0.00 in 1132 W/m2
12:48 77.9 °F 61.4 °F 29.92 in WSW 1.0 mph 4.0 mph 57% 0.00 in 997 W/m2
12:54 78.0 °F 57.9 °F 29.92 in WSW 1.0 mph 2.0 mph 50% 0.00 in 998 W/m2
13:00 77.3 °F 57.8 °F 29.92 in SW 3.0 mph 3.0 mph 51% 0.00 in 970 W/m2
13:06 77.0 °F 58.6 °F 29.91 in SSE 2.0 mph 3.0 mph 53% 0.00 in 1063 W/m2
13:12 77.2 °F 60.3 °F 29.91 in South 2.0 mph 3.0 mph 56% 0.00 in 1063 W/m2
13:18 77.5 °F 59.0 °F 29.91 in SW 2.0 mph 3.0 mph 53% 0.00 in 1095 W/m2
13:24 76.4 °F 56.4 °F 29.91 in ESE 1.0 mph 2.0 mph 50% 0.00 in 371 W/m2
13:30 77.5 °F 59.5 °F 29.91 in North 1.0 mph 1.0 mph 54% 0.00 in 371 W/m2
13:36 78.0 °F 61.0 °F 29.91 in West 1.0 mph 2.0 mph 56% 0.00 in 432 W/m2
13:42 78.1 °F 59.0 °F 29.91 in SW 1.0 mph 1.0 mph 52% 0.00 in 773 W/m2
13:48 78.5 °F 60.5 °F 29.91 in WSW 1.0 mph 2.0 mph 54% 0.00 in 608 W/m2
13:54 78.2 °F 58.0 °F 29.91 in WSW 2.0 mph 3.0 mph 50% 0.00 in 661 W/m2
14:00 77.7 °F 57.6 °F 29.91 in WSW 1.0 mph 1.0 mph 50% 0.00 in 366 W/m2
14:06 77.6 °F 62.6 °F 29.91 in Calm   1.0 mph 60% 0.00 in 302 W/m2
14:12 77.1 °F 58.1 °F 29.91 in Calm     52% 0.00 in 246 W/m2
14:18 77.2 °F 61.3 °F 29.91 in Calm     58% 0.00 in 320 W/m2
14:24 78.4 °F 58.2 °F 29.91 in Calm   2.0 mph 50% 0.00 in 1079 W/m2
14:30 78.8 °F 59.1 °F 29.91 in WSW 1.0 mph 1.0 mph 51% 0.00 in 1060 W/m2
14:36 78.4 °F 57.7 °F 29.91 in South 1.0 mph 2.0 mph 49% 0.00 in 954 W/m2
14:42 79.4 °F 59.1 °F 29.91 in East 1.0 mph 1.0 mph 50% 0.00 in 919 W/m2
14:48 79.5 °F 58.7 °F 29.91 in NNW 1.0 mph 2.0 mph 49% 0.00 in 926 W/m2
14:56 79.6 °F 58.8 °F 29.90 in SW 1.0 mph 4.0 mph 49% 0.00 in 1037 W/m2
15:02 80.1 °F 59.8 °F 29.90 in SW 1.0 mph 3.0 mph 50% 0.00 in 882 W/m2
15:08 80.3 °F 58.2 °F 29.90 in West 1.0 mph 3.0 mph 47% 0.00 in 918 W/m2
15:14 80.4 °F 57.1 °F 29.90 in SW 1.0 mph 3.0 mph 45% 0.00 in 476 W/m2
15:20 80.2 °F 57.5 °F 29.90 in SW 2.0 mph 2.0 mph 46% 0.00 in 919 W/m2
15:26 80.9 °F 56.3 °F 29.90 in SW 1.0 mph 2.0 mph 43% 0.00 in 837 W/m2
15:32 80.9 °F 59.9 °F 29.90 in Calm   1.0 mph 49% 0.00 in 309 W/m2
15:38 79.1 °F 55.9 °F 29.90 in Calm   2.0 mph 45% 0.00 in 257 W/m2
15:44 79.2 °F 60.6 °F 29.90 in Calm   1.0 mph 53% 0.00 in 441 W/m2
15:50 79.3 °F 57.3 °F 29.90 in Calm     47% 0.00 in 322 W/m2
15:56 80.2 °F 62.0 °F 29.90 in Calm     54% 0.00 in 993 W/m2
16:02 81.6 °F 57.6 °F 29.89 in NNW 1.0 mph 1.0 mph 44% 0.00 in 853 W/m2
16:08 81.0 °F 57.0 °F 29.89 in WSW 1.0 mph 3.0 mph 44% 0.00 in 807 W/m2
16:14 80.7 °F 59.8 °F 29.89 in SW 1.0 mph 3.0 mph 49% 0.00 in 738 W/m2
16:20 81.0 °F 59.5 °F 29.89 in SSW 1.0 mph 4.0 mph 48% 0.00 in 729 W/m2
16:26 81.2 °F 60.8 °F 29.89 in NW 1.0 mph 4.0 mph 50% 0.00 in 737 W/m2
16:32 80.7 °F 58.0 °F 29.89 in NW 1.0 mph 1.0 mph 46% 0.00 in 204 W/m2
16:38 80.2 °F 59.9 °F 29.89 in Calm   1.0 mph 50% 0.00 in 281 W/m2
16:44 80.3 °F 60.5 °F 29.89 in Calm     51% 0.00 in 722 W/m2
16:50 80.7 °F 58.0 °F 29.89 in SW 1.0 mph 2.0 mph 46% 0.00 in 253 W/m2
16:56 80.6 °F 57.3 °F 29.89 in Calm   2.0 mph 45% 0.00 in 234 W/m2
17:02 80.1 °F 59.8 °F 29.89 in Calm   2.0 mph 50% 0.00 in 285 W/m2
17:08 80.0 °F 59.7 °F 29.89 in Calm   2.0 mph 50% 0.00 in 204 W/m2
17:14 79.8 °F 60.1 °F 29.89 in NW 1.0 mph 1.0 mph 51% 0.00 in 221 W/m2
17:20 79.7 °F 58.8 °F 29.89 in NW 1.0 mph 1.0 mph 49% 0.00 in 153 W/m2
17:26 79.6 °F 59.9 °F 29.89 in NE 1.0 mph 2.0 mph 51% 0.00 in 109 W/m2
17:32 79.6 °F 59.9 °F 29.89 in NNE 2.0 mph 2.0 mph 51% 0.00 in 90 W/m2
17:38 79.6 °F 59.9 °F 29.89 in NNE 1.0 mph 2.0 mph 51% 0.00 in 100 W/m2
17:44 79.3 °F 59.6 °F 29.89 in Calm   1.0 mph 51% 0.00 in 125 W/m2
17:50 78.8 °F 59.7 °F 29.89 in Calm     52% 0.00 in 139 W/m2
17:56 78.8 °F 59.7 °F 29.89 in NNE 1.0 mph 1.0 mph 52% 0.00 in 118 W/m2
18:02 78.8 °F 59.1 °F 29.88 in NW 2.0 mph 2.0 mph 51% 0.00 in 97 W/m2
18:08 78.8 °F 60.2 °F 29.88 in NW 1.0 mph 2.0 mph 53% 0.00 in 81 W/m2
18:14 78.9 °F 59.2 °F 29.88 in North 1.0 mph 4.0 mph 51% 0.00 in 76 W/m2
18:20 78.8 °F 59.1 °F 29.88 in NNW 2.0 mph 2.0 mph 51% 0.00 in 65 W/m2
18:26 78.8 °F 60.2 °F 29.88 in North 1.0 mph 3.0 mph 53% 0.00 in 62 W/m2
18:32 78.7 °F 61.2 °F 29.88 in North 2.0 mph 2.0 mph 55% 0.00 in 62 W/m2
18:38 78.5 °F 59.9 °F 29.89 in North 2.0 mph 4.0 mph 53% 0.00 in 54 W/m2
18:44 78.4 °F 60.4 °F 29.89 in North 2.0 mph 3.0 mph 54% 0.00 in 51 W/m2
18:50 78.2 °F 61.7 °F 29.89 in North 1.0 mph 1.0 mph 57% 0.00 in 49 W/m2
18:56 78.1 °F 62.1 °F 29.89 in North 1.0 mph 4.0 mph 58% 0.00 in 46 W/m2
19:02 77.9 °F 62.9 °F 29.89 in North 1.0 mph 1.0 mph 60% 0.00 in 35 W/m2
19:08 77.6 °F 63.5 °F 29.90 in Calm   1.0 mph 62% 0.00 in 35 W/m2
19:16 77.2 °F 64.1 °F 29.90 in Calm     64% 0.00 in 33 W/m2
19:22 76.8 °F 65.4 °F 29.90 in Calm     68% 0.00 in 33 W/m2
19:28 76.3 °F 65.8 °F 29.90 in Calm     70% 0.00 in 33 W/m2
19:34 75.9 °F 65.0 °F 29.90 in Calm     69% 0.00 in 40 W/m2
19:40 75.3 °F 64.8 °F 29.90 in Calm     70% 0.00 in 39 W/m2
19:46 74.8 °F 64.8 °F 29.90 in Calm     71% 0.00 in 33 W/m2
19:52 74.5 °F 64.5 °F 29.90 in North 1.0 mph 1.0 mph 71% 0.00 in 26 W/m2
19:58 74.2 °F 64.6 °F 29.90 in Calm   1.0 mph 72% 0.00 in 16 W/m2
20:04 73.8 °F 64.6 °F 29.90 in Calm     73% 0.00 in 12 W/m2
20:10 73.4 °F 65.0 °F 29.90 in Calm     75% 0.00 in 9 W/m2
20:16 72.9 °F 64.5 °F 29.91 in Calm   1.0 mph 75% 0.00 in 7 W/m2
20:22 72.7 °F 64.7 °F 29.91 in Calm     76% 0.00 in 5 W/m2
20:28 72.3 °F 64.7 °F 29.91 in Calm     77% 0.00 in 0 W/m2
20:34 72.0 °F 64.8 °F 29.91 in Calm     78% 0.00 in 0 W/m2
20:40 71.5 °F 64.6 °F 29.91 in Calm     79% 0.00 in 0 W/m2
20:46 70.9 °F 64.4 °F 29.91 in Calm     80% 0.00 in 0 W/m2
20:52 70.3 °F 64.2 °F 29.91 in Calm     81% 0.00 in 0 W/m2
20:58 69.9 °F 64.2 °F 29.91 in Calm     82% 0.00 in 0 W/m2
21:04 69.8 °F 64.1 °F 29.91 in Calm     82% 0.00 in 0 W/m2
21:10 69.7 °F 64.3 °F 29.91 in Calm     83% 0.00 in 0 W/m2
21:16 69.4 °F 64.0 °F 29.91 in Calm     83% 0.00 in 0 W/m2
21:22 69.2 °F 63.8 °F 29.91 in Calm     83% 0.00 in 0 W/m2
21:28 69.0 °F 63.6 °F 29.91 in Calm     83% 0.00 in 0 W/m2
21:34 68.8 °F 63.8 °F 29.91 in Calm     84% 0.00 in 0 W/m2
21:40 68.7 °F 63.7 °F 29.91 in Calm     84% 0.00 in 0 W/m2
21:46 68.5 °F 63.8 °F 29.91 in Calm     85% 0.00 in 0 W/m2
21:52 68.3 °F 63.9 °F 29.91 in Calm     86% 0.00 in 0 W/m2
21:58 68.2 °F 63.9 °F 29.91 in Calm     86% 0.00 in 0 W/m2
22:06 68.2 °F 63.9 °F 29.92 in Calm     86% 0.00 in 0 W/m2
22:12 68.3 °F 64.3 °F 29.91 in Calm     87% 0.00 in 0 W/m2
22:18 68.2 °F 64.2 °F 29.92 in Calm     87% 0.00 in 0 W/m2
22:24 68.3 °F 64.3 °F 29.92 in Calm     87% 0.00 in 0 W/m2
22:30 68.3 °F 64.3 °F 29.92 in Calm     87% 0.00 in 0 W/m2
22:36 68.2 °F 64.2 °F 29.92 in Calm     87% 0.00 in 0 W/m2
22:42 68.1 °F 64.1 °F 29.92 in Calm     87% 0.00 in 0 W/m2
22:48 67.9 °F 63.9 °F 29.92 in Calm     87% 0.00 in 0 W/m2
22:54 67.6 °F 63.9 °F 29.92 in Calm     88% 0.00 in 0 W/m2
23:00 67.5 °F 63.8 °F 29.92 in Calm     88% 0.00 in 0 W/m2
23:06 67.4 °F 64.0 °F 29.92 in Calm     89% 0.00 in 0 W/m2
23:12 67.2 °F 63.8 °F 29.92 in Calm     89% 0.00 in 0 W/m2
23:18 66.9 °F 63.6 °F 29.92 in Calm     89% 0.00 in 0 W/m2
23:26 66.7 °F 63.7 °F 29.92 in Calm     90% 0.00 in 0 W/m2
23:32 66.4 °F 63.4 °F 29.92 in Calm     90% 0.00 in 0 W/m2
23:38 66.2 °F 63.2 °F 29.92 in Calm     90% 0.00 in 0 W/m2
23:44 66.2 °F 63.2 °F 29.92 in Calm     90% 0.00 in 0 W/m2
23:50 66.1 °F 63.4 °F 29.92 in Calm     91% 0.00 in 0 W/m2
23:56 66.0 °F 63.3 °F 29.92 in Calm     91% 0.00 in 0 W/m2
Country Meadow, Clay, NY, USA
Compliments of Weather Underground - 2 mb